createdAt,value
2022-08-06T00:00:02.458Z,86.98
2022-08-06T00:00:30.374Z,86.68
2022-08-06T00:01:29.454Z,86.57
2022-08-06T00:02:31.447Z,86.41
2022-08-06T00:03:29.351Z,86.57
2022-08-06T00:04:29.393Z,87.29
2022-08-06T00:05:35.263Z,87.29
2022-08-06T00:06:30.344Z,87.38
2022-08-06T00:07:44.955Z,87.69
2022-08-06T00:08:30.297Z,87.69
2022-08-06T00:09:31.963Z,88.24
2022-08-06T00:10:30.696Z,87.43
2022-08-06T00:11:29.305Z,87.32
2022-08-06T00:12:29.551Z,87.23
2022-08-06T00:13:43.871Z,87.84
2022-08-06T00:14:29.238Z,87.43
2022-08-06T00:16:09.363Z,87.32
2022-08-06T00:16:36.435Z,87.12
2022-08-06T00:17:32.936Z,87.43
2022-08-06T00:18:29.888Z,87.43
2022-08-06T00:19:29.168Z,86.71
2022-08-06T00:20:31.675Z,87.67
2022-08-06T00:21:42.406Z,88.08
2022-08-06T00:22:30.384Z,87.87
2022-08-06T00:23:52.250Z,88.39
2022-08-06T00:24:30.153Z,88.28
2022-08-06T00:25:29.406Z,88.08
2022-08-06T00:26:30.118Z,87.98
2022-08-06T00:27:43.863Z,87.26
2022-08-06T00:28:32.016Z,87.47
2022-08-06T00:29:43.985Z,87.87
2022-08-06T00:30:30.882Z,88.02
2022-08-06T00:31:30.270Z,88.18
2022-08-06T00:32:29.356Z,89.00
2022-08-06T00:33:44.491Z,88.42
2022-08-06T00:34:44.887Z,87.92
2022-08-06T00:35:28.997Z,88.02
2022-08-06T00:36:30.534Z,88.32
2022-08-06T00:37:57.923Z,88.93
2022-08-06T00:38:29.959Z,88.53
2022-08-06T00:39:29.942Z,88.63
2022-08-06T00:40:29.638Z,88.53
2022-08-06T00:41:41.703Z,88.73
2022-08-06T00:42:29.915Z,88.42
2022-08-06T00:43:39.701Z,89.44
2022-08-06T00:44:31.205Z,89.64
2022-08-06T00:45:31.386Z,89.64
2022-08-06T00:46:28.896Z,89.14
2022-08-06T00:48:02.518Z,89.34
2022-08-06T00:48:37.457Z,89.75
2022-08-06T00:49:49.059Z,89.24
2022-08-06T00:50:29.836Z,90.46
2022-08-06T00:51:43.153Z,90.46
2022-08-06T00:52:30.390Z,90.56
2022-08-06T00:53:34.155Z,89.54
2022-08-06T00:54:35.622Z,88.93
2022-08-06T00:55:32.409Z,89.24
2022-08-06T00:56:33.767Z,89.54
2022-08-06T00:57:30.262Z,89.85
2022-08-06T00:58:29.373Z,89.95
2022-08-06T00:59:35.645Z,89.95
2022-08-06T01:00:30.891Z,90.05
2022-08-06T01:01:28.979Z,89.85
2022-08-06T01:02:49.778Z,89.24
2022-08-06T01:03:41.557Z,89.38
2022-08-06T01:04:30.372Z,89.38
2022-08-06T01:06:04.715Z,89.18
2022-08-06T01:06:57.340Z,89.54
2022-08-06T01:07:51.817Z,89.38
2022-08-06T01:08:30.372Z,89.38
2022-08-06T01:09:31.677Z,89.18
2022-08-06T01:10:31.090Z,89.59
2022-08-06T01:11:30.374Z,89.79
2022-08-06T01:12:33.634Z,90.09
2022-08-06T01:14:03.976Z,89.89
2022-08-06T01:14:39.209Z,89.79
2022-08-06T01:16:07.996Z,89.89
2022-08-06T01:16:30.245Z,89.18
2022-08-06T01:17:31.376Z,89.18
2022-08-06T01:18:58.547Z,89.89
2022-08-06T01:21:21.936Z,89.89
2022-08-06T01:21:57.984Z,89.99
2022-08-06T01:22:00.010Z,90.14
2022-08-06T01:22:32.010Z,90.34
2022-08-06T01:23:31.382Z,90.09
2022-08-06T01:24:28.467Z,89.99
2022-08-06T01:25:45.908Z,90.30
2022-08-06T01:26:29.431Z,90.30
2022-08-06T01:27:32.223Z,90.40
2022-08-06T01:28:29.917Z,89.99
2022-08-06T01:29:35.000Z,89.99
2022-08-06T01:30:29.433Z,89.99
2022-08-06T01:31:29.383Z,89.89
2022-08-06T01:32:28.599Z,90.20
2022-08-06T01:33:30.390Z,90.20
2022-08-06T01:34:31.415Z,89.99
2022-08-06T01:35:47.697Z,90.30
2022-08-06T01:36:29.400Z,90.50
2022-08-06T01:37:28.880Z,91.11
2022-08-06T01:38:29.309Z,91.31
2022-08-06T01:39:53.004Z,90.91
2022-08-06T01:40:29.936Z,91.22
2022-08-06T01:41:28.276Z,90.91
2022-08-06T01:42:35.945Z,91.22
2022-08-06T01:44:07.623Z,91.22
2022-08-06T01:44:32.819Z,91.22
2022-08-06T01:45:32.526Z,90.91
2022-08-06T01:46:29.236Z,91.22
2022-08-06T01:47:28.233Z,91.52
2022-08-06T01:48:29.312Z,91.56
2022-08-06T01:50:00.958Z,92.38
2022-08-06T01:50:30.159Z,92.13
2022-08-06T01:52:14.768Z,91.66
2022-08-06T01:52:30.564Z,91.26
2022-08-06T01:53:47.214Z,91.26
2022-08-06T01:54:29.145Z,91.16
2022-08-06T01:55:42.522Z,90.64
2022-08-06T01:56:55.836Z,92.07
2022-08-06T01:58:04.761Z,92.07
2022-08-06T01:58:30.270Z,92.63
2022-08-06T01:59:28.079Z,92.58
2022-08-06T02:00:29.883Z,93.29
2022-08-06T02:01:28.099Z,93.40
2022-08-06T02:02:30.824Z,92.89
2022-08-06T02:03:28.058Z,92.27
2022-08-06T02:04:29.041Z,92.63
2022-08-06T02:05:31.795Z,91.77
2022-08-06T02:06:30.883Z,92.52
2022-08-06T02:08:33.962Z,93.24
2022-08-06T02:08:37.516Z,93.33
2022-08-06T02:09:37.588Z,93.48
2022-08-06T02:10:28.958Z,93.48
2022-08-06T02:12:03.646Z,92.93
2022-08-06T02:12:31.175Z,92.87
2022-08-06T02:13:34.665Z,93.07
2022-08-06T02:14:29.903Z,92.26
2022-08-06T02:15:38.511Z,92.77
2022-08-06T02:16:28.921Z,92.77
2022-08-06T02:18:03.578Z,92.26
2022-08-06T02:18:35.498Z,93.48
2022-08-06T02:19:30.895Z,92.97
2022-08-06T02:20:36.480Z,92.46
2022-08-06T02:21:32.868Z,92.36
2022-08-06T02:22:28.197Z,91.96
2022-08-06T02:23:33.067Z,91.96
2022-08-06T02:24:28.937Z,92.67
2022-08-06T02:25:31.179Z,93.59
2022-08-06T02:26:32.307Z,93.48
2022-08-06T02:27:43.437Z,93.38
2022-08-06T02:28:28.761Z,92.77
2022-08-06T02:30:05.120Z,92.50
2022-08-06T02:30:34.963Z,93.52
2022-08-06T02:31:28.730Z,93.73
2022-08-06T02:32:28.937Z,93.93
2022-08-06T02:34:01.008Z,94.24
2022-08-06T02:34:31.278Z,94.45
2022-08-06T02:35:27.685Z,94.95
2022-08-06T02:36:30.390Z,94.45
2022-08-06T02:38:02.146Z,94.04
2022-08-06T02:38:29.453Z,93.84
2022-08-06T02:39:29.935Z,94.55
2022-08-06T02:40:29.383Z,94.04
2022-08-06T02:41:27.633Z,94.85
2022-08-06T02:42:28.999Z,94.65
2022-08-06T02:43:48.610Z,94.24
2022-08-06T02:44:27.590Z,94.65
2022-08-06T02:45:35.561Z,93.63
2022-08-06T02:46:28.567Z,93.73
2022-08-06T02:47:36.201Z,93.93
2022-08-06T02:48:31.968Z,93.84
2022-08-06T02:49:29.400Z,93.57
2022-08-06T02:50:27.529Z,94.08
2022-08-06T02:52:11.053Z,95.00
2022-08-06T02:52:32.309Z,94.49
2022-08-06T02:53:28.506Z,94.79
2022-08-06T02:54:28.504Z,95.72
2022-08-06T02:55:33.881Z,94.29
2022-08-06T02:56:28.459Z,94.84
2022-08-06T02:57:27.451Z,95.76
2022-08-06T02:58:29.421Z,96.06
2022-08-06T02:59:28.427Z,96.27
2022-08-06T03:00:29.600Z,96.17
2022-08-06T03:01:27.488Z,95.45
2022-08-06T03:02:27.735Z,95.65
2022-08-06T03:03:34.633Z,95.86
2022-08-06T03:04:32.404Z,96.31
2022-08-06T03:05:55.763Z,96.78
2022-08-06T03:06:28.346Z,96.68
2022-08-06T03:07:30.590Z,97.19
2022-08-06T03:08:27.336Z,96.06
2022-08-06T03:09:27.315Z,96.27
2022-08-06T03:10:30.454Z,97.08
2022-08-06T03:11:31.755Z,97.08
2022-08-06T03:12:30.108Z,96.37
2022-08-06T03:13:29.575Z,96.37
2022-08-06T03:15:03.819Z,96.17
2022-08-06T03:15:58.027Z,95.76
2022-08-06T03:16:28.824Z,96.31
2022-08-06T03:17:27.231Z,96.31
2022-08-06T03:18:28.151Z,97.44
2022-08-06T03:19:56.833Z,96.92
2022-08-06T03:20:28.215Z,97.13
2022-08-06T03:21:27.193Z,97.24
2022-08-06T03:22:38.974Z,97.24
2022-08-06T03:23:28.903Z,97.29
2022-08-06T03:24:27.189Z,97.03
2022-08-06T03:25:27.191Z,96.88
2022-08-06T03:26:27.911Z,96.92
2022-08-06T03:27:50.896Z,96.98
2022-08-06T03:28:27.164Z,97.60
2022-08-06T03:29:30.220Z,97.19
2022-08-06T03:30:33.008Z,96.68
2022-08-06T03:31:33.802Z,96.27
2022-08-06T03:32:52.132Z,96.17
2022-08-06T03:33:29.431Z,95.56
2022-08-06T03:34:28.570Z,96.21
2022-08-06T03:35:41.561Z,97.64
2022-08-06T03:36:58.006Z,97.70
2022-08-06T03:37:28.784Z,97.70
2022-08-06T03:38:29.539Z,97.49
2022-08-06T03:39:27.069Z,97.19
2022-08-06T03:40:27.015Z,96.06
2022-08-06T03:41:29.081Z,95.56
2022-08-06T03:42:33.046Z,95.76
2022-08-06T03:43:30.548Z,97.39
2022-08-06T03:44:29.247Z,97.19
2022-08-06T03:45:45.255Z,97.19
2022-08-06T03:46:27.950Z,96.98
2022-08-06T03:47:30.774Z,97.49
2022-08-06T03:48:35.635Z,96.58
2022-08-06T03:49:40.527Z,96.17
2022-08-06T03:50:27.873Z,95.96
2022-08-06T03:51:48.870Z,96.68
2022-08-06T03:52:28.158Z,97.08
2022-08-06T03:53:26.844Z,96.98
2022-08-06T03:54:30.568Z,96.98
2022-08-06T03:55:29.137Z,95.76
2022-08-06T03:56:29.621Z,96.47
2022-08-06T03:57:29.250Z,96.88
2022-08-06T03:58:28.420Z,97.08
2022-08-06T03:59:38.064Z,96.78
2022-08-06T04:00:28.805Z,96.37
2022-08-06T04:01:26.815Z,97.39
2022-08-06T04:02:45.519Z,97.49
2022-08-06T04:03:27.732Z,96.01
2022-08-06T04:04:27.895Z,97.64
2022-08-06T04:05:26.715Z,97.80
2022-08-06T04:06:28.298Z,97.39
2022-08-06T04:07:54.942Z,97.39
2022-08-06T04:08:27.672Z,97.60
2022-08-06T04:09:33.919Z,97.49
2022-08-06T04:10:34.309Z,97.70
2022-08-06T04:12:10.779Z,97.70
2022-08-06T04:12:42.171Z,98.11
2022-08-06T04:14:04.919Z,97.39
2022-08-06T04:14:28.037Z,97.39
2022-08-06T04:15:27.383Z,97.60
2022-08-06T04:16:33.042Z,97.70
2022-08-06T04:17:32.675Z,98.00
2022-08-06T04:18:29.421Z,97.70
2022-08-06T04:19:32.250Z,96.88
2022-08-06T04:20:41.654Z,97.70
2022-08-06T04:22:58.101Z,97.49
2022-08-06T04:23:05.863Z,97.39
2022-08-06T04:23:38.069Z,97.60
2022-08-06T04:24:30.202Z,97.70
2022-08-06T04:25:26.482Z,96.98
2022-08-06T04:26:26.475Z,97.08
2022-08-06T04:27:26.473Z,97.39
2022-08-06T04:28:29.158Z,97.70
2022-08-06T04:29:50.756Z,97.39
2022-08-06T04:30:27.446Z,97.29
2022-08-06T04:32:11.237Z,97.60
2022-08-06T04:32:29.337Z,97.80
2022-08-06T04:33:35.179Z,97.60
2022-08-06T04:34:28.888Z,97.60
2022-08-06T04:36:05.724Z,97.70
2022-08-06T04:36:27.353Z,97.75
2022-08-06T04:37:40.523Z,97.39
2022-08-06T04:38:30.192Z,97.70
2022-08-06T04:39:37.831Z,97.60
2022-08-06T04:40:35.701Z,97.33
2022-08-06T04:41:27.306Z,98.00
2022-08-06T04:42:27.204Z,97.85
2022-08-06T04:43:37.993Z,97.95
2022-08-06T04:44:27.287Z,97.95
2022-08-06T04:46:16.381Z,97.85
2022-08-06T04:46:27.529Z,98.61
2022-08-06T04:47:41.672Z,98.25
2022-08-06T04:48:27.225Z,97.80
2022-08-06T04:50:01.795Z,98.05
2022-08-06T04:50:27.229Z,97.95
2022-08-06T04:52:45.552Z,97.80
2022-08-06T04:52:45.756Z,98.21
2022-08-06T04:53:56.577Z,98.21
2022-08-06T04:54:27.897Z,97.49
2022-08-06T04:55:33.444Z,98.11
2022-08-06T04:56:37.582Z,97.86
2022-08-06T04:57:56.224Z,97.96
2022-08-06T04:58:33.901Z,97.65
2022-08-06T04:59:49.686Z,96.98
2022-08-06T05:00:34.001Z,97.65
2022-08-06T05:01:27.928Z,97.24
2022-08-06T05:02:27.357Z,97.34
2022-08-06T05:04:05.617Z,97.55
2022-08-06T05:04:27.462Z,97.40
2022-08-06T05:05:26.039Z,97.50
2022-08-06T05:06:26.058Z,97.61
2022-08-06T05:07:28.879Z,97.45
2022-08-06T05:08:26.007Z,97.09
2022-08-06T05:09:42.090Z,97.09
2022-08-06T05:10:28.925Z,96.79
2022-08-06T05:11:25.980Z,96.48
2022-08-06T05:12:26.715Z,97.30
2022-08-06T05:13:35.433Z,97.40
2022-08-06T05:14:27.894Z,97.09
2022-08-06T05:15:27.234Z,96.69
2022-08-06T05:16:26.928Z,97.09
2022-08-06T05:17:25.944Z,97.05
2022-08-06T05:19:19.783Z,95.93
2022-08-06T05:19:26.919Z,95.93
2022-08-06T05:20:27.654Z,96.03
2022-08-06T05:22:05.998Z,95.73
2022-08-06T05:22:52.097Z,96.23
2022-08-06T05:23:26.861Z,95.83
2022-08-06T05:24:39.680Z,95.52
2022-08-06T05:25:27.417Z,95.42
2022-08-06T05:26:32.417Z,95.42
2022-08-06T05:27:25.808Z,95.93
2022-08-06T05:28:27.917Z,95.93
2022-08-06T05:29:25.791Z,96.14
2022-08-06T05:30:28.442Z,95.73
2022-08-06T05:31:28.561Z,96.03
2022-08-06T05:32:29.533Z,95.17
2022-08-06T05:33:26.657Z,95.42
2022-08-06T05:34:25.724Z,95.58
2022-08-06T05:35:40.351Z,95.48
2022-08-06T05:36:30.642Z,95.17
2022-08-06T05:38:01.357Z,94.76
2022-08-06T05:38:32.164Z,94.46
2022-08-06T05:39:56.591Z,94.97
2022-08-06T05:40:34.258Z,95.28
2022-08-06T05:41:29.805Z,95.13
2022-08-06T05:42:26.704Z,94.52
2022-08-06T05:43:57.473Z,94.72
2022-08-06T05:44:26.613Z,94.72
2022-08-06T05:45:26.549Z,94.42
2022-08-06T05:46:26.332Z,94.31
2022-08-06T05:47:25.611Z,94.72
2022-08-06T05:48:29.312Z,94.42
2022-08-06T05:49:55.602Z,94.82
2022-08-06T05:50:27.179Z,94.27
2022-08-06T05:51:43.758Z,94.42
2022-08-06T05:52:26.805Z,94.52
2022-08-06T05:54:02.483Z,94.27
2022-08-06T05:54:26.509Z,94.47
2022-08-06T05:55:30.141Z,94.47
2022-08-06T05:56:38.346Z,94.47
2022-08-06T05:57:33.536Z,93.71
2022-08-06T05:58:29.596Z,93.41
2022-08-06T05:59:38.151Z,93.82
2022-08-06T06:00:41.796Z,93.82
2022-08-06T06:01:29.397Z,93.82
2022-08-06T06:02:25.660Z,93.41
2022-08-06T06:03:33.101Z,93.21
2022-08-06T06:04:33.378Z,94.02
2022-08-06T06:06:04.938Z,93.51
2022-08-06T06:06:26.443Z,93.47
2022-08-06T06:08:09.599Z,93.47
2022-08-06T06:08:29.605Z,93.77
2022-08-06T06:09:56.430Z,94.08
2022-08-06T06:10:26.331Z,93.26
2022-08-06T06:11:55.406Z,92.61
2022-08-06T06:12:33.009Z,93.12
2022-08-06T06:13:32.426Z,92.51
2022-08-06T06:14:32.669Z,92.00
2022-08-06T06:16:01.108Z,91.86
2022-08-06T06:16:28.169Z,90.94
2022-08-06T06:17:25.259Z,90.99
2022-08-06T06:18:34.394Z,90.84
2022-08-06T06:19:29.900Z,91.75
2022-08-06T06:20:57.641Z,91.25
2022-08-06T06:21:32.077Z,91.14
2022-08-06T06:22:29.044Z,90.59
2022-08-06T06:23:25.910Z,90.53
2022-08-06T06:24:26.287Z,90.90
2022-08-06T06:25:27.903Z,90.80
2022-08-06T06:26:32.306Z,90.80
2022-08-06T06:27:42.734Z,91.41
2022-08-06T06:28:28.676Z,91.56
2022-08-06T06:30:02.649Z,90.75
2022-08-06T06:30:40.962Z,90.86
2022-08-06T06:32:07.742Z,90.86
2022-08-06T06:32:30.269Z,91.06
2022-08-06T06:33:36.810Z,90.25
2022-08-06T06:34:28.903Z,91.97
2022-08-06T06:35:32.395Z,91.06
2022-08-06T06:36:26.068Z,90.81
2022-08-06T06:37:25.040Z,90.96
2022-08-06T06:38:26.274Z,90.92
2022-08-06T06:39:28.077Z,90.81
2022-08-06T06:40:29.015Z,90.92
2022-08-06T06:41:25.024Z,90.92
2022-08-06T06:42:32.671Z,90.61
2022-08-06T06:43:26.299Z,90.71
2022-08-06T06:45:03.691Z,90.81
2022-08-06T06:46:35.362Z,90.81
2022-08-06T06:46:38.836Z,90.67
2022-08-06T06:47:28.309Z,90.88
2022-08-06T06:48:25.918Z,90.88
2022-08-06T06:50:01.157Z,90.47
2022-08-06T06:50:25.934Z,90.97
2022-08-06T06:51:27.250Z,90.47
2022-08-06T06:52:30.159Z,90.88
2022-08-06T06:54:06.556Z,90.88
2022-08-06T06:54:37.877Z,90.88
2022-08-06T06:55:26.904Z,90.57
2022-08-06T06:56:25.852Z,89.61
2022-08-06T06:57:25.815Z,90.16
2022-08-06T06:58:33.050Z,89.72
2022-08-06T06:59:26.306Z,88.40
2022-08-06T07:00:43.900Z,89.21
2022-08-06T07:01:28.758Z,88.40
2022-08-06T07:02:25.045Z,87.79
2022-08-06T07:03:24.763Z,85.25
2022-08-06T07:04:26.583Z,85.21
2022-08-06T07:06:04.335Z,85.21
2022-08-06T07:06:31.066Z,85.62
2022-08-06T07:07:28.421Z,85.21
2022-08-06T07:08:31.950Z,84.50
2022-08-06T07:09:41.843Z,84.87
2022-08-06T07:10:25.680Z,83.04
2022-08-06T07:11:26.430Z,83.04
2022-08-06T07:12:24.654Z,83.86
2022-08-06T07:13:47.471Z,82.70
2022-08-06T07:14:26.405Z,81.49
2022-08-06T07:15:25.689Z,81.99
2022-08-06T07:16:35.187Z,82.30
2022-08-06T07:17:59.950Z,82.10
2022-08-06T07:18:34.211Z,81.59
2022-08-06T07:19:25.593Z,81.79
2022-08-06T07:20:25.917Z,82.60
2022-08-06T07:21:24.952Z,82.40
2022-08-06T07:22:27.405Z,80.88
2022-08-06T07:24:07.946Z,81.09
2022-08-06T07:24:35.778Z,81.09
2022-08-06T07:25:25.516Z,80.54
2022-08-06T07:26:24.523Z,80.04
2022-08-06T07:27:25.457Z,79.93
2022-08-06T07:28:25.546Z,80.84
2022-08-06T07:29:48.411Z,79.93
2022-08-06T07:30:25.767Z,79.29
2022-08-06T07:31:27.411Z,79.49
2022-08-06T07:32:30.829Z,78.78
2022-08-06T07:33:28.410Z,78.78
2022-08-06T07:34:25.433Z,76.86
2022-08-06T07:35:24.415Z,77.97
2022-08-06T07:36:24.624Z,78.58
2022-08-06T07:37:24.442Z,76.97
2022-08-06T07:38:26.921Z,77.37
2022-08-06T07:39:24.441Z,77.77
2022-08-06T07:40:24.360Z,77.17
2022-08-06T07:41:31.754Z,76.46
2022-08-06T07:42:25.449Z,76.62
2022-08-06T07:43:25.192Z,76.62
2022-08-06T07:44:29.306Z,74.60
2022-08-06T07:45:24.315Z,74.90
2022-08-06T07:46:31.915Z,75.61
2022-08-06T07:47:54.389Z,76.12
2022-08-06T07:48:25.907Z,76.82
2022-08-06T07:49:31.803Z,75.81
2022-08-06T07:50:25.452Z,76.02
2022-08-06T07:51:33.724Z,76.82
2022-08-06T07:52:26.782Z,76.42
2022-08-06T07:53:40.846Z,76.72
2022-08-06T07:54:33.608Z,75.51
2022-08-06T07:55:25.497Z,75.41
2022-08-06T07:56:25.903Z,76.62
2022-08-06T07:57:25.533Z,76.62
2022-08-06T07:58:24.158Z,75.68
2022-08-06T07:59:25.905Z,75.48
2022-08-06T08:00:24.268Z,75.27
2022-08-06T08:01:28.197Z,74.06
2022-08-06T08:02:28.997Z,73.75
2022-08-06T08:03:56.648Z,73.62
2022-08-06T08:04:34.902Z,72.31
2022-08-06T08:05:26.297Z,72.81
2022-08-06T08:06:25.100Z,72.31
2022-08-06T08:07:27.140Z,73.02
2022-08-06T08:08:25.151Z,72.61
2022-08-06T08:09:59.124Z,72.61
2022-08-06T08:10:28.715Z,72.61
2022-08-06T08:11:38.341Z,72.27
2022-08-06T08:12:29.530Z,73.79
2022-08-06T08:13:40.777Z,73.99
2022-08-06T08:14:25.723Z,73.79
2022-08-06T08:15:24.080Z,74.29
2022-08-06T08:16:28.649Z,72.68
2022-08-06T08:17:39.906Z,72.07
2022-08-06T08:18:24.944Z,72.14
2022-08-06T08:19:24.923Z,71.26
2022-08-06T08:20:23.910Z,71.67
2022-08-06T08:21:30.459Z,71.47
2022-08-06T08:22:24.304Z,72.11
2022-08-06T08:23:25.382Z,71.70
2022-08-06T08:24:24.860Z,71.91
2022-08-06T08:25:40.571Z,71.50
2022-08-06T08:26:25.256Z,71.17
2022-08-06T08:27:37.326Z,68.95
2022-08-06T08:28:24.835Z,68.74
2022-08-06T08:29:26.811Z,69.82
2022-08-06T08:30:24.796Z,68.41
2022-08-06T08:31:26.639Z,67.40
2022-08-06T08:32:23.780Z,67.19
2022-08-06T08:33:23.953Z,68.84
2022-08-06T08:34:30.426Z,68.91
2022-08-06T08:35:23.747Z,63.76
2022-08-06T08:36:30.546Z,64.17
2022-08-06T08:37:32.474Z,66.02
2022-08-06T08:38:26.706Z,68.01
2022-08-06T08:39:26.496Z,67.19
2022-08-06T08:40:24.687Z,66.89
2022-08-06T08:41:23.682Z,66.29
2022-08-06T08:42:31.814Z,66.29
2022-08-06T08:43:24.687Z,67.30
2022-08-06T08:44:26.801Z,66.99
2022-08-06T08:45:23.637Z,67.80
2022-08-06T08:46:30.651Z,67.90
2022-08-06T08:47:24.769Z,67.10
2022-08-06T08:48:27.746Z,68.01
2022-08-06T08:49:23.610Z,68.10
2022-08-06T08:50:24.415Z,66.36
2022-08-06T08:51:23.572Z,66.76
2022-08-06T08:52:24.425Z,67.97
2022-08-06T08:53:45.698Z,67.16
2022-08-06T08:54:24.944Z,68.07
2022-08-06T08:57:07.835Z,66.05
2022-08-06T08:57:09.774Z,67.94
2022-08-06T08:58:40.866Z,65.82
2022-08-06T08:58:47.672Z,66.53
2022-08-06T08:59:59.917Z,65.35
2022-08-06T09:00:26.432Z,66.05
2022-08-06T09:01:53.246Z,66.66
2022-08-06T09:02:24.705Z,66.73
2022-08-06T09:03:24.422Z,66.83
2022-08-06T09:04:24.620Z,66.73
2022-08-06T09:05:23.439Z,66.22
2022-08-06T09:06:29.029Z,66.80
2022-08-06T09:07:25.599Z,66.60
2022-08-06T09:08:59.642Z,66.39
2022-08-06T09:09:30.158Z,66.22
2022-08-06T09:10:24.382Z,67.54
2022-08-06T09:12:03.714Z,65.32
2022-08-06T09:12:32.883Z,65.01
2022-08-06T09:13:27.509Z,63.47
2022-08-06T09:14:28.290Z,65.19
2022-08-06T09:15:25.647Z,63.75
2022-08-06T09:16:32.322Z,63.95
2022-08-06T09:18:11.696Z,65.06
2022-08-06T09:18:27.453Z,64.89
2022-08-06T09:19:23.260Z,64.69
2022-08-06T09:20:26.931Z,64.69
2022-08-06T09:21:23.917Z,64.28
2022-08-06T09:22:23.496Z,65.86
2022-08-06T09:23:23.247Z,65.19
2022-08-06T09:24:24.765Z,64.18
2022-08-06T09:25:27.506Z,63.67
2022-08-06T09:26:45.321Z,63.45
2022-08-06T09:27:48.124Z,63.95
2022-08-06T09:28:24.194Z,63.85
2022-08-06T09:29:33.581Z,64.86
2022-08-06T09:30:29.929Z,63.51
2022-08-06T09:31:33.269Z,63.85
2022-08-06T09:32:24.115Z,65.46
2022-08-06T09:34:19.023Z,64.52
2022-08-06T09:34:31.378Z,64.22
2022-08-06T09:35:44.397Z,63.18
2022-08-06T09:36:30.598Z,63.99
2022-08-06T09:37:26.047Z,63.68
2022-08-06T09:38:24.054Z,63.76
2022-08-06T09:39:25.945Z,62.85
2022-08-06T09:40:29.535Z,62.95
2022-08-06T09:41:24.228Z,65.23
2022-08-06T09:42:26.241Z,63.82
2022-08-06T09:43:34.425Z,63.53
2022-08-06T09:44:35.318Z,63.62
2022-08-06T09:45:42.171Z,62.02
2022-08-06T09:46:24.956Z,63.73
2022-08-06T09:47:22.962Z,62.02
2022-08-06T09:48:24.008Z,61.94
2022-08-06T09:49:45.922Z,62.24
2022-08-06T09:50:24.135Z,62.58
2022-08-06T09:51:50.238Z,63.08
2022-08-06T09:52:23.961Z,63.11
2022-08-06T09:53:29.428Z,63.42
2022-08-06T09:54:25.700Z,63.82
2022-08-06T09:55:29.426Z,63.92
2022-08-06T09:56:22.878Z,63.68
2022-08-06T09:57:25.681Z,63.68
2022-08-06T09:58:23.851Z,62.75
2022-08-06T09:59:23.437Z,63.73
2022-08-06T10:00:37.424Z,62.32
2022-08-06T10:01:23.498Z,62.42
2022-08-06T10:02:23.590Z,63.42
2022-08-06T10:04:02.511Z,62.99
2022-08-06T10:04:35.887Z,61.69
2022-08-06T10:05:24.468Z,61.25
2022-08-06T10:06:23.753Z,61.29
2022-08-06T10:07:22.736Z,61.35
2022-08-06T10:08:22.964Z,61.79
2022-08-06T10:09:44.280Z,61.86
2022-08-06T10:10:28.715Z,62.16
2022-08-06T10:11:24.423Z,59.82
2022-08-06T10:12:38.156Z,57.71
2022-08-06T10:13:23.254Z,57.71
2022-08-06T10:14:22.965Z,57.51
2022-08-06T10:15:58.003Z,55.83
2022-08-06T10:16:30.449Z,55.73
2022-08-06T10:17:23.447Z,55.40
2022-08-06T10:18:54.793Z,55.40
2022-08-06T10:19:26.430Z,55.38
2022-08-06T10:20:24.559Z,56.78
2022-08-06T10:21:22.653Z,57.26
2022-08-06T10:22:27.422Z,55.55
2022-08-06T10:23:22.574Z,57.79
2022-08-06T10:24:26.043Z,59.26
2022-08-06T10:25:46.420Z,57.10
2022-08-06T10:26:23.538Z,55.60
2022-08-06T10:27:22.521Z,55.60
2022-08-06T10:28:23.422Z,57.17
2022-08-06T10:29:23.204Z,57.15
2022-08-06T10:30:25.438Z,55.52
2022-08-06T10:31:22.472Z,55.15
2022-08-06T10:32:22.470Z,58.25
2022-08-06T10:33:27.234Z,55.44
2022-08-06T10:34:23.473Z,58.25
2022-08-06T10:35:25.420Z,60.02
2022-08-06T10:36:22.425Z,56.42
2022-08-06T10:37:49.590Z,56.45
2022-08-06T10:38:29.155Z,56.33
2022-08-06T10:40:08.026Z,57.93
2022-08-06T10:40:30.856Z,58.23
2022-08-06T10:41:59.254Z,55.58
2022-08-06T10:42:23.413Z,56.18
2022-08-06T10:43:37.964Z,56.01
2022-08-06T10:44:22.333Z,56.41
2022-08-06T10:45:23.324Z,56.34
2022-08-06T10:46:22.328Z,57.14
2022-08-06T10:48:58.150Z,57.54
2022-08-06T10:49:01.632Z,57.84
2022-08-06T10:50:30.245Z,57.71
2022-08-06T10:50:39.035Z,58.49
2022-08-06T10:51:53.147Z,55.95
2022-08-06T10:52:24.710Z,55.25
2022-08-06T10:54:01.578Z,54.32
2022-08-06T10:54:24.646Z,56.93
2022-08-06T10:55:22.242Z,59.98
2022-08-06T10:56:28.625Z,60.25
2022-08-06T10:57:35.752Z,53.62
2022-08-06T10:58:23.180Z,54.94
2022-08-06T10:59:25.351Z,55.07
2022-08-06T11:00:23.164Z,53.57
2022-08-06T11:01:22.473Z,54.20
2022-08-06T11:02:22.143Z,54.12
2022-08-06T11:03:37.041Z,54.00
2022-08-06T11:04:28.985Z,55.27
2022-08-06T11:05:25.521Z,54.77
2022-08-06T11:06:22.128Z,54.24
2022-08-06T11:08:08.681Z,54.69
2022-08-06T11:08:41.067Z,52.39
2022-08-06T11:10:01.944Z,53.47
2022-08-06T11:10:44.059Z,51.94
2022-08-06T11:11:23.060Z,50.65
2022-08-06T11:12:22.083Z,55.21
2022-08-06T11:13:22.019Z,56.18
2022-08-06T11:14:22.012Z,51.10
2022-08-06T11:15:23.230Z,50.10
2022-08-06T11:16:27.777Z,52.52
2022-08-06T11:17:22.654Z,49.42
2022-08-06T11:18:28.168Z,50.77
2022-08-06T11:19:23.100Z,52.89
2022-08-06T11:20:22.939Z,53.74
2022-08-06T11:21:22.936Z,55.50
2022-08-06T11:22:22.444Z,57.90
2022-08-06T11:23:52.869Z,57.90
2022-08-06T11:24:22.919Z,56.50
2022-08-06T11:25:26.346Z,57.20
2022-08-06T11:26:23.454Z,57.63
2022-08-06T11:27:48.138Z,55.80
2022-08-06T11:28:22.879Z,57.50
2022-08-06T11:29:21.851Z,56.13
2022-08-06T11:30:26.317Z,56.23
2022-08-06T11:31:21.832Z,54.52
2022-08-06T11:32:21.832Z,54.72
2022-08-06T11:33:21.986Z,55.50
2022-08-06T11:34:30.742Z,54.27
2022-08-06T11:35:23.471Z,57.65
2022-08-06T11:36:21.768Z,57.79
2022-08-06T11:38:00.258Z,55.47
2022-08-06T11:38:24.626Z,53.67
2022-08-06T11:39:24.466Z,51.77
2022-08-06T11:40:22.722Z,53.57
2022-08-06T11:41:50.183Z,52.29
2022-08-06T11:42:25.815Z,52.19
2022-08-06T11:43:25.373Z,54.27
2022-08-06T11:44:25.412Z,52.07
2022-08-06T11:46:21.206Z,52.25
2022-08-06T11:46:31.894Z,52.12
2022-08-06T11:47:36.968Z,52.02
2022-08-06T11:48:27.670Z,50.20
2022-08-06T11:49:22.648Z,52.87
2022-08-06T11:50:21.616Z,50.99
2022-08-06T11:51:22.609Z,51.10
2022-08-06T11:52:42.610Z,50.65
2022-08-06T11:53:22.448Z,51.97
2022-08-06T11:54:28.534Z,53.49
2022-08-06T11:55:24.976Z,52.52
2022-08-06T11:56:25.472Z,53.17
2022-08-06T11:57:23.672Z,53.39
2022-08-06T11:58:23.017Z,54.20
2022-08-06T11:59:22.461Z,54.00
2022-08-06T12:00:21.514Z,54.52
2022-08-06T12:01:33.759Z,55.55
2022-08-06T12:02:23.529Z,55.73
2022-08-06T12:03:21.443Z,52.97
2022-08-06T12:04:28.459Z,51.94
2022-08-06T12:05:25.356Z,53.44
2022-08-06T12:06:27.094Z,55.19
2022-08-06T12:07:24.383Z,50.07
2022-08-06T12:08:38.824Z,50.07
2022-08-06T12:09:35.720Z,51.37
2022-08-06T12:10:29.734Z,51.15
2022-08-06T12:11:23.723Z,50.24
2022-08-06T12:12:21.960Z,48.37
2022-08-06T12:13:21.424Z,48.57
2022-08-06T12:14:34.097Z,48.67
2022-08-06T12:15:53.132Z,48.85
2022-08-06T12:16:24.961Z,49.57
2022-08-06T12:17:44.738Z,51.04
2022-08-06T12:18:27.801Z,49.67
2022-08-06T12:19:24.521Z,51.37
2022-08-06T12:20:33.998Z,50.67
2022-08-06T12:21:24.961Z,51.04
2022-08-06T12:22:21.272Z,51.12
2022-08-06T12:23:30.078Z,52.82
2022-08-06T12:24:22.475Z,51.67
2022-08-06T12:25:21.967Z,51.59
2022-08-06T12:26:33.408Z,50.20
2022-08-06T12:27:24.563Z,51.32
2022-08-06T12:28:21.205Z,51.12
2022-08-06T12:29:23.513Z,51.20
2022-08-06T12:30:36.960Z,48.82
2022-08-06T12:31:36.568Z,50.22
2022-08-06T12:32:22.153Z,49.10
2022-08-06T12:33:21.144Z,49.40
2022-08-06T12:34:21.136Z,50.12
2022-08-06T12:35:24.964Z,49.32
2022-08-06T12:36:32.493Z,51.12
2022-08-06T12:37:25.486Z,48.82
2022-08-06T12:38:24.476Z,49.77
2022-08-06T12:39:43.051Z,50.22
2022-08-06T12:40:43.121Z,49.44
2022-08-06T12:41:45.833Z,49.64
2022-08-06T12:42:22.076Z,49.07
2022-08-06T12:43:43.301Z,48.89
2022-08-06T12:44:55.910Z,50.39
2022-08-06T12:46:04.421Z,50.57
2022-08-06T12:46:22.006Z,50.16
2022-08-06T12:48:02.594Z,50.07
2022-08-06T12:48:22.495Z,48.79
2022-08-06T12:49:21.958Z,49.89
2022-08-06T12:50:26.216Z,51.57
2022-08-06T12:51:27.605Z,52.87